createdAt,value
2018-07-24T00:00:16.596Z,22.6
2018-07-24T00:01:16.682Z,22.62
2018-07-24T00:02:16.715Z,22.6
2018-07-24T00:03:16.624Z,22.6
2018-07-24T00:04:16.462Z,22.6
2018-07-24T00:05:16.655Z,22.59
2018-07-24T00:06:16.589Z,22.59
2018-07-24T00:07:16.759Z,22.59
2018-07-24T00:08:16.586Z,22.57
2018-07-24T00:09:16.635Z,22.59
2018-07-24T00:10:16.683Z,22.59
2018-07-24T00:11:16.788Z,22.59
2018-07-24T00:12:16.790Z,22.6
2018-07-24T00:13:16.817Z,22.57
2018-07-24T00:14:16.668Z,22.59
2018-07-24T00:15:16.588Z,22.59
2018-07-24T00:16:16.959Z,22.59
2018-07-24T00:17:16.617Z,22.56
2018-07-24T00:18:16.672Z,22.59
2018-07-24T00:19:16.702Z,22.59
2018-07-24T00:20:16.820Z,22.57
2018-07-24T00:21:16.684Z,22.57
2018-07-24T00:22:16.847Z,22.59
2018-07-24T00:23:16.850Z,22.57
2018-07-24T00:24:16.540Z,22.57
2018-07-24T00:25:16.659Z,22.57
2018-07-24T00:26:16.812Z,22.56
2018-07-24T00:27:16.645Z,22.57
2018-07-24T00:28:16.637Z,22.56
2018-07-24T00:29:16.626Z,22.57
2018-07-24T00:30:16.638Z,22.57
2018-07-24T00:31:16.764Z,22.56
2018-07-24T00:32:17.699Z,22.56
2018-07-24T00:33:16.519Z,22.57
2018-07-24T00:34:16.622Z,22.56
2018-07-24T00:35:16.623Z,22.56
2018-07-24T00:36:16.613Z,22.59
2018-07-24T00:37:16.564Z,22.56
2018-07-24T00:38:16.751Z,22.56
2018-07-24T00:39:16.563Z,22.57
2018-07-24T00:40:16.606Z,22.57
2018-07-24T00:41:16.568Z,22.57
2018-07-24T00:42:16.701Z,22.59
2018-07-24T00:43:16.688Z,22.57
2018-07-24T00:44:16.727Z,22.57
2018-07-24T00:45:16.626Z,22.56
2018-07-24T00:46:17.401Z,22.54
2018-07-24T00:47:16.855Z,22.57
2018-07-24T00:48:16.740Z,22.59
2018-07-24T00:49:16.709Z,22.57
2018-07-24T00:50:16.810Z,22.56
2018-07-24T00:51:16.686Z,22.56
2018-07-24T00:52:16.717Z,22.57
2018-07-24T00:53:16.596Z,22.53
2018-07-24T00:54:17.671Z,22.54
2018-07-24T00:55:16.661Z,22.56
2018-07-24T00:56:16.700Z,22.56
2018-07-24T00:57:16.773Z,22.56
2018-07-24T00:58:16.707Z,22.54
2018-07-24T00:59:16.665Z,22.54
2018-07-24T01:00:16.697Z,22.56
2018-07-24T01:01:47.073Z,22.53
2018-07-24T01:02:16.682Z,22.54
2018-07-24T01:03:16.734Z,22.57
2018-07-24T01:04:16.731Z,22.56
2018-07-24T01:05:17.056Z,22.51
2018-07-24T01:06:16.843Z,22.54
2018-07-24T01:07:16.696Z,22.54
2018-07-24T01:08:16.751Z,22.54
2018-07-24T01:09:16.590Z,22.54
2018-07-24T01:10:16.759Z,22.53
2018-07-24T01:11:16.713Z,22.53
2018-07-24T01:12:16.649Z,22.53
2018-07-24T01:13:16.804Z,22.54
2018-07-24T01:14:16.555Z,22.53
2018-07-24T01:15:16.700Z,22.54
2018-07-24T01:16:16.715Z,22.54
2018-07-24T01:17:16.442Z,22.51
2018-07-24T01:18:16.874Z,22.54
2018-07-24T01:19:16.555Z,22.53
2018-07-24T01:20:16.671Z,22.53
2018-07-24T01:21:16.628Z,22.51
2018-07-24T01:22:16.654Z,22.51
2018-07-24T01:23:16.533Z,22.53
2018-07-24T01:24:16.697Z,22.53
2018-07-24T01:25:16.687Z,22.53
2018-07-24T01:26:16.648Z,22.53
2018-07-24T01:27:16.640Z,22.53
2018-07-24T01:28:16.508Z,22.54
2018-07-24T01:29:16.635Z,22.51
2018-07-24T01:30:16.766Z,22.54
2018-07-24T01:31:16.445Z,22.54
2018-07-24T01:32:16.616Z,22.53
2018-07-24T01:33:16.696Z,22.54
2018-07-24T01:34:16.742Z,22.53
2018-07-24T01:35:17.058Z,22.51
2018-07-24T01:36:16.750Z,22.51
2018-07-24T01:37:16.742Z,22.54
2018-07-24T01:38:16.754Z,22.51
2018-07-24T01:39:16.632Z,22.53
2018-07-24T01:40:16.722Z,22.51
2018-07-24T01:41:16.617Z,22.5
2018-07-24T01:42:16.589Z,22.5
2018-07-24T01:43:16.649Z,22.5
2018-07-24T01:44:16.670Z,22.5
2018-07-24T01:45:16.667Z,22.51
2018-07-24T01:46:16.911Z,22.51
2018-07-24T01:47:16.761Z,22.51
2018-07-24T01:48:16.676Z,22.51
2018-07-24T01:49:16.646Z,22.5
2018-07-24T01:50:16.586Z,22.49
2018-07-24T01:51:16.621Z,22.51
2018-07-24T01:52:16.489Z,22.51
2018-07-24T01:53:16.628Z,22.49
2018-07-24T01:54:18.286Z,22.51
2018-07-24T01:55:16.502Z,22.51
2018-07-24T01:56:16.689Z,22.49
2018-07-24T01:57:16.591Z,22.51
2018-07-24T01:58:16.745Z,22.53
2018-07-24T01:59:16.814Z,22.5
2018-07-24T02:00:16.842Z,22.51
2018-07-24T02:01:16.704Z,22.51
2018-07-24T02:02:16.674Z,22.5
2018-07-24T02:03:16.795Z,22.5
2018-07-24T02:04:16.660Z,22.5
2018-07-24T02:05:16.680Z,22.5
2018-07-24T02:06:16.766Z,22.5
2018-07-24T02:07:16.606Z,22.49
2018-07-24T02:08:16.745Z,22.49
2018-07-24T02:09:16.568Z,22.47
2018-07-24T02:10:16.699Z,22.51
2018-07-24T02:11:17.011Z,22.49
2018-07-24T02:12:16.676Z,22.5
2018-07-24T02:13:16.725Z,22.51
2018-07-24T02:14:16.666Z,22.49
2018-07-24T02:15:16.795Z,22.5
2018-07-24T02:16:16.735Z,22.49
2018-07-24T02:17:16.724Z,22.49
2018-07-24T02:18:18.849Z,22.51
2018-07-24T02:19:16.737Z,22.47
2018-07-24T02:20:16.746Z,22.51
2018-07-24T02:21:16.563Z,22.49
2018-07-24T02:22:16.715Z,22.49
2018-07-24T02:23:16.751Z,22.47
2018-07-24T02:24:16.732Z,22.47
2018-07-24T02:25:16.705Z,22.49
2018-07-24T02:26:26.835Z,22.49
2018-07-24T02:27:16.785Z,22.49
2018-07-24T02:28:16.700Z,22.51
2018-07-24T02:29:16.750Z,22.49
2018-07-24T02:30:16.687Z,22.49
2018-07-24T02:31:16.634Z,22.49
2018-07-24T02:32:16.634Z,22.49
2018-07-24T02:33:16.624Z,22.49
2018-07-24T02:34:16.617Z,22.49
2018-07-24T02:35:16.971Z,22.46
2018-07-24T02:36:16.766Z,22.49
2018-07-24T02:37:16.752Z,22.5
2018-07-24T02:38:16.643Z,22.49
2018-07-24T02:39:16.663Z,22.47
2018-07-24T02:40:16.772Z,22.47
2018-07-24T02:41:16.752Z,22.49
2018-07-24T02:42:16.800Z,22.49
2018-07-24T02:43:16.811Z,22.49
2018-07-24T02:44:16.742Z,22.47
2018-07-24T02:45:16.733Z,22.47
2018-07-24T02:46:17.098Z,22.47
2018-07-24T02:47:16.795Z,22.47
2018-07-24T02:48:16.725Z,22.47
2018-07-24T02:49:16.764Z,22.47
2018-07-24T02:50:16.626Z,22.46
2018-07-24T02:51:16.673Z,22.47
2018-07-24T02:52:16.532Z,22.47
2018-07-24T02:53:16.534Z,22.46
2018-07-24T02:54:16.476Z,22.49
2018-07-24T02:55:16.532Z,22.46
2018-07-24T02:56:16.642Z,22.49
2018-07-24T02:57:16.546Z,22.47
2018-07-24T02:58:16.629Z,22.46
2018-07-24T02:59:16.619Z,22.47
2018-07-24T03:00:16.643Z,22.46
2018-07-24T03:01:16.592Z,22.47
2018-07-24T03:02:16.731Z,22.47
2018-07-24T03:03:16.590Z,22.47
2018-07-24T03:04:16.690Z,22.44
2018-07-24T03:05:16.786Z,22.44
2018-07-24T03:06:16.591Z,22.49
2018-07-24T03:07:16.754Z,22.46
2018-07-24T03:08:16.566Z,22.46
2018-07-24T03:09:17.015Z,22.46
2018-07-24T03:10:16.785Z,22.46
2018-07-24T03:11:16.618Z,22.46
2018-07-24T03:12:16.806Z,22.46
2018-07-24T03:13:16.639Z,22.47
2018-07-24T03:14:16.851Z,22.46
2018-07-24T03:15:16.641Z,22.47
2018-07-24T03:16:17.732Z,22.46
2018-07-24T03:17:16.662Z,22.44
2018-07-24T03:18:16.666Z,22.47
2018-07-24T03:19:16.528Z,22.46
2018-07-24T03:20:16.849Z,22.46
2018-07-24T03:21:16.792Z,22.47
2018-07-24T03:22:16.781Z,22.46
2018-07-24T03:23:16.836Z,22.46
2018-07-24T03:24:16.683Z,22.46
2018-07-24T03:25:16.864Z,22.47
2018-07-24T03:26:16.705Z,22.44
2018-07-24T03:27:16.771Z,22.43
2018-07-24T03:28:17.136Z,22.46
2018-07-24T03:29:16.774Z,22.46
2018-07-24T03:30:16.519Z,22.47
2018-07-24T03:31:16.620Z,22.46
2018-07-24T03:32:16.888Z,22.44
2018-07-24T03:33:16.692Z,22.42
2018-07-24T03:34:16.919Z,22.43
2018-07-24T03:35:16.656Z,22.44
2018-07-24T03:36:17.040Z,22.44
2018-07-24T03:37:16.757Z,22.46
2018-07-24T03:38:16.503Z,22.46
2018-07-24T03:39:16.756Z,22.46
2018-07-24T03:40:16.685Z,22.46
2018-07-24T03:41:16.787Z,22.43
2018-07-24T03:42:16.953Z,22.44
2018-07-24T03:43:16.960Z,22.43
2018-07-24T03:44:16.814Z,22.44
2018-07-24T03:45:16.795Z,22.46
2018-07-24T03:46:16.645Z,22.43
2018-07-24T03:47:16.848Z,22.44
2018-07-24T03:48:16.626Z,22.44
2018-07-24T03:49:16.853Z,22.42
2018-07-24T03:50:16.816Z,22.44
2018-07-24T03:51:16.697Z,22.44
2018-07-24T03:52:16.722Z,22.44
2018-07-24T03:53:16.689Z,22.43
2018-07-24T03:54:16.822Z,22.44
2018-07-24T03:55:17.454Z,22.44
2018-07-24T03:56:17.205Z,22.44
2018-07-24T03:57:16.639Z,22.44
2018-07-24T03:58:16.683Z,22.43
2018-07-24T03:59:16.646Z,22.44
2018-07-24T04:00:16.678Z,22.46
2018-07-24T04:01:16.803Z,22.43
2018-07-24T04:02:16.926Z,22.44
2018-07-24T04:03:16.744Z,22.43
2018-07-24T04:04:16.728Z,22.44
2018-07-24T04:05:16.512Z,22.44
2018-07-24T04:06:16.617Z,22.46
2018-07-24T04:07:16.479Z,22.46
2018-07-24T04:08:16.543Z,22.43
2018-07-24T04:09:16.723Z,22.43
2018-07-24T04:10:16.482Z,22.43
2018-07-24T04:11:16.422Z,22.42
2018-07-24T04:12:16.629Z,22.43
2018-07-24T04:13:16.618Z,22.43
2018-07-24T04:14:16.278Z,22.43
2018-07-24T04:15:16.674Z,22.43
2018-07-24T04:16:16.671Z,22.43
2018-07-24T04:17:16.814Z,22.42
2018-07-24T04:18:16.688Z,22.44
2018-07-24T04:19:16.643Z,22.43
2018-07-24T04:20:16.640Z,22.43
2018-07-24T04:21:16.744Z,22.43
2018-07-24T04:22:16.734Z,22.43
2018-07-24T04:23:16.424Z,22.42
2018-07-24T04:24:16.744Z,22.43
2018-07-24T04:25:16.680Z,22.43
2018-07-24T04:26:16.454Z,22.43
2018-07-24T04:27:16.740Z,22.42
2018-07-24T04:28:16.652Z,22.43
2018-07-24T04:29:18.050Z,22.43
2018-07-24T04:30:16.770Z,22.43
2018-07-24T04:31:17.149Z,22.42
2018-07-24T04:32:16.466Z,22.43
2018-07-24T04:33:16.674Z,22.43
2018-07-24T04:34:16.676Z,22.43
2018-07-24T04:35:16.837Z,22.44
2018-07-24T04:36:16.947Z,22.42
2018-07-24T04:37:16.704Z,22.43
2018-07-24T04:38:16.625Z,22.4
2018-07-24T04:39:16.663Z,22.43
2018-07-24T04:40:18.054Z,22.4
2018-07-24T04:41:16.543Z,22.42
2018-07-24T04:42:16.773Z,22.42
2018-07-24T04:43:16.798Z,22.42
2018-07-24T04:44:16.581Z,22.39
2018-07-24T04:45:16.745Z,22.43
2018-07-24T04:46:16.797Z,22.4
2018-07-24T04:47:16.686Z,22.42
2018-07-24T04:48:16.680Z,22.42
2018-07-24T04:49:16.651Z,22.44
2018-07-24T04:50:16.467Z,22.39
2018-07-24T04:51:16.746Z,22.42
2018-07-24T04:52:16.786Z,22.4
2018-07-24T04:53:16.454Z,22.43
2018-07-24T04:54:16.656Z,22.42
2018-07-24T04:55:16.758Z,22.39
2018-07-24T04:56:16.753Z,22.42
2018-07-24T04:57:16.757Z,22.42
2018-07-24T04:58:16.675Z,22.4
2018-07-24T04:59:16.503Z,22.42
2018-07-24T05:00:16.754Z,22.42
2018-07-24T05:01:16.908Z,22.39
2018-07-24T05:02:16.728Z,22.43
2018-07-24T05:03:17.706Z,22.43
2018-07-24T05:04:16.845Z,22.39
2018-07-24T05:05:16.751Z,22.4
2018-07-24T05:06:16.771Z,22.4
2018-07-24T05:07:16.391Z,22.39
2018-07-24T05:08:16.452Z,22.4
2018-07-24T05:09:16.793Z,22.4
2018-07-24T05:10:16.784Z,22.43
2018-07-24T05:11:16.479Z,22.39
2018-07-24T05:12:16.748Z,22.4
2018-07-24T05:13:16.864Z,22.4
2018-07-24T05:14:16.662Z,22.38
2018-07-24T05:15:16.679Z,22.39
2018-07-24T05:16:16.451Z,22.4
2018-07-24T05:17:16.396Z,22.4
2018-07-24T05:18:16.661Z,22.4
2018-07-24T05:19:16.612Z,22.4
2018-07-24T05:20:16.696Z,22.39
2018-07-24T05:21:16.658Z,22.42
2018-07-24T05:22:16.764Z,22.4
2018-07-24T05:23:16.542Z,22.4
2018-07-24T05:24:16.674Z,22.39
2018-07-24T05:25:16.638Z,22.4
2018-07-24T05:26:16.583Z,22.38
2018-07-24T05:27:16.732Z,22.42
2018-07-24T05:28:16.587Z,22.46
2018-07-24T05:29:16.730Z,22.46
2018-07-24T05:30:16.618Z,22.44
2018-07-24T05:31:16.767Z,22.44
2018-07-24T05:32:16.738Z,22.46
2018-07-24T05:33:17.618Z,22.43
2018-07-24T05:34:16.622Z,22.43
2018-07-24T05:35:16.256Z,22.4
2018-07-24T05:36:16.944Z,22.4
2018-07-24T05:37:16.813Z,22.42
2018-07-24T05:38:16.632Z,22.39
2018-07-24T05:39:16.513Z,22.39
2018-07-24T05:40:16.783Z,22.36
2018-07-24T05:41:16.631Z,22.42
2018-07-24T05:42:16.696Z,22.4
2018-07-24T05:43:16.634Z,22.4
2018-07-24T05:44:16.463Z,22.39
2018-07-24T05:45:16.583Z,22.42
2018-07-24T05:46:16.692Z,22.42
2018-07-24T05:47:16.477Z,22.42
2018-07-24T05:48:16.787Z,22.4
2018-07-24T05:49:16.681Z,22.39
2018-07-24T05:50:16.722Z,22.42
2018-07-24T05:51:16.548Z,22.38
2018-07-24T05:52:16.645Z,22.39
2018-07-24T05:53:16.421Z,22.4
2018-07-24T05:54:16.447Z,22.42
2018-07-24T05:55:16.682Z,22.42
2018-07-24T05:56:16.828Z,22.42
2018-07-24T05:57:16.794Z,22.39
2018-07-24T05:58:16.891Z,22.39
2018-07-24T05:59:16.619Z,22.39
2018-07-24T06:00:16.790Z,22.4
2018-07-24T06:01:16.775Z,22.38
2018-07-24T06:02:16.477Z,22.38
2018-07-24T06:03:16.861Z,22.4
2018-07-24T06:04:16.449Z,22.39
2018-07-24T06:05:16.685Z,22.36
2018-07-24T06:06:16.722Z,22.4
2018-07-24T06:07:17.318Z,22.39
2018-07-24T06:08:16.613Z,22.38
2018-07-24T06:09:16.627Z,22.39
2018-07-24T06:10:16.734Z,22.36
2018-07-24T06:11:16.450Z,22.39
2018-07-24T06:12:16.679Z,22.42
2018-07-24T06:13:17.953Z,22.39
2018-07-24T06:14:16.633Z,22.39
2018-07-24T06:15:16.975Z,22.38
2018-07-24T06:16:16.642Z,22.38
2018-07-24T06:17:17.083Z,22.4
2018-07-24T06:18:16.641Z,22.38
2018-07-24T06:19:16.897Z,22.4
2018-07-24T06:20:16.447Z,22.4
2018-07-24T06:21:16.950Z,22.44
2018-07-24T06:22:16.541Z,22.43
2018-07-24T06:23:16.518Z,22.42
2018-07-24T06:24:16.641Z,22.39
2018-07-24T06:25:17.156Z,22.4
2018-07-24T06:26:16.733Z,22.39
2018-07-24T06:27:16.758Z,22.4
2018-07-24T06:28:16.659Z,22.42
2018-07-24T06:29:17.035Z,22.38
2018-07-24T06:30:16.435Z,22.4
2018-07-24T06:31:16.584Z,22.4
2018-07-24T06:32:16.631Z,22.39
2018-07-24T06:33:16.431Z,22.42
2018-07-24T06:34:16.731Z,22.4
2018-07-24T06:35:16.543Z,22.4
2018-07-24T06:36:16.858Z,22.39
2018-07-24T06:37:16.688Z,22.4
2018-07-24T06:38:16.320Z,22.4
2018-07-24T06:39:16.416Z,22.4
2018-07-24T06:40:16.510Z,22.4
2018-07-24T06:41:16.434Z,22.39
2018-07-24T06:42:16.471Z,22.39
2018-07-24T06:43:16.843Z,22.39
2018-07-24T06:44:17.054Z,22.39
2018-07-24T06:45:16.480Z,22.4
2018-07-24T06:46:16.632Z,22.38
2018-07-24T06:47:16.472Z,22.38
2018-07-24T06:48:16.717Z,22.39
2018-07-24T06:49:16.793Z,22.38
2018-07-24T06:50:16.386Z,22.38
2018-07-24T06:51:17.768Z,22.4
2018-07-24T06:52:16.546Z,22.4
2018-07-24T06:53:16.460Z,22.4
2018-07-24T06:54:16.837Z,22.4
2018-07-24T06:55:17.219Z,22.42
2018-07-24T06:56:16.406Z,22.4
2018-07-24T06:57:17.062Z,22.42
2018-07-24T06:58:17.012Z,22.42
2018-07-24T06:59:17.523Z,22.43
2018-07-24T07:00:17.593Z,22.43
2018-07-24T07:01:17.321Z,22.44
2018-07-24T07:02:18.186Z,22.47
2018-07-24T07:03:17.528Z,22.46
2018-07-24T07:04:17.295Z,22.46
2018-07-24T07:05:16.421Z,22.42
2018-07-24T07:06:17.129Z,22.4
2018-07-24T07:07:17.123Z,22.4
2018-07-24T07:08:17.111Z,22.4
2018-07-24T07:09:16.438Z,22.4
2018-07-24T07:10:17.446Z,22.4
2018-07-24T07:11:16.842Z,22.39
2018-07-24T07:12:16.907Z,22.38
2018-07-24T07:13:16.911Z,22.4
2018-07-24T07:14:19.282Z,22.4
2018-07-24T07:15:16.304Z,22.42
2018-07-24T07:16:17.717Z,22.4
2018-07-24T07:17:16.437Z,22.38
2018-07-24T07:18:16.392Z,22.42
2018-07-24T07:19:16.534Z,22.4
2018-07-24T07:20:16.926Z,22.4
2018-07-24T07:21:16.607Z,22.42
2018-07-24T07:22:16.724Z,22.39
2018-07-24T07:23:16.885Z,22.4
2018-07-24T07:24:16.455Z,22.4
2018-07-24T07:25:16.383Z,22.4
2018-07-24T07:26:17.639Z,22.4
2018-07-24T07:27:16.769Z,22.4
2018-07-24T07:28:16.558Z,22.39
2018-07-24T07:29:17.311Z,22.39
2018-07-24T07:30:16.732Z,22.42
2018-07-24T07:31:16.384Z,22.39
2018-07-24T07:32:17.454Z,22.38
2018-07-24T07:33:16.567Z,22.42
2018-07-24T07:34:16.557Z,22.4
2018-07-24T07:35:16.634Z,22.38
2018-07-24T07:36:16.461Z,22.38
2018-07-24T07:37:16.403Z,22.39
2018-07-24T07:38:16.440Z,22.4
2018-07-24T07:39:17.883Z,22.4
2018-07-24T07:40:16.588Z,22.4
2018-07-24T07:41:16.542Z,22.39
2018-07-24T07:42:16.637Z,22.4
2018-07-24T07:43:16.617Z,22.4
2018-07-24T07:44:16.434Z,22.39
2018-07-24T07:45:17.034Z,22.38
2018-07-24T07:46:16.489Z,22.39
2018-07-24T07:47:16.403Z,22.39
2018-07-24T07:48:16.443Z,22.39
2018-07-24T07:49:16.622Z,22.4
2018-07-24T07:50:16.212Z,22.39
2018-07-24T07:51:16.531Z,22.38
2018-07-24T07:52:16.584Z,22.39
2018-07-24T07:53:16.592Z,22.39
2018-07-24T07:54:16.443Z,22.39
2018-07-24T07:55:16.697Z,22.39
2018-07-24T07:56:16.538Z,22.38
2018-07-24T07:57:16.441Z,22.39
2018-07-24T07:58:16.898Z,22.36
2018-07-24T07:59:16.426Z,22.39
2018-07-24T08:00:16.554Z,22.4
2018-07-24T08:01:16.472Z,22.39
2018-07-24T08:02:16.371Z,22.38
2018-07-24T08:03:16.444Z,22.39
2018-07-24T08:04:17.481Z,22.39
2018-07-24T08:05:16.731Z,22.38
2018-07-24T08:06:16.531Z,22.38
2018-07-24T08:07:16.330Z,22.4
2018-07-24T08:08:16.397Z,22.39
2018-07-24T08:09:16.696Z,22.39
2018-07-24T08:10:16.472Z,22.39
2018-07-24T08:11:16.447Z,22.38
2018-07-24T08:12:17.155Z,22.4
2018-07-24T08:13:16.840Z,22.38
2018-07-24T08:14:17.492Z,22.38
2018-07-24T08:15:16.686Z,22.38
2018-07-24T08:16:16.492Z,22.39
2018-07-24T08:17:16.396Z,22.36
2018-07-24T08:18:16.491Z,22.38
2018-07-24T08:19:16.617Z,22.39
2018-07-24T08:20:16.745Z,22.39
2018-07-24T08:21:16.590Z,22.38
2018-07-24T08:22:17.467Z,22.39
2018-07-24T08:23:19.311Z,22.38
2018-07-24T08:24:16.713Z,22.38
2018-07-24T08:25:16.532Z,22.38
2018-07-24T08:26:16.639Z,22.38
2018-07-24T08:27:16.664Z,22.35
2018-07-24T08:28:17.611Z,22.38
2018-07-24T08:29:16.550Z,22.35
2018-07-24T08:30:16.355Z,22.39
2018-07-24T08:31:16.662Z,22.39
2018-07-24T08:32:16.482Z,22.36
2018-07-24T08:33:16.534Z,22.38
2018-07-24T08:34:16.545Z,22.38
2018-07-24T08:35:16.412Z,22.36
2018-07-24T08:36:16.745Z,22.39
2018-07-24T08:37:16.707Z,22.38
2018-07-24T08:38:16.599Z,22.38
2018-07-24T08:39:16.467Z,22.36
2018-07-24T08:40:16.440Z,22.36
2018-07-24T08:41:16.523Z,22.38
2018-07-24T08:42:16.741Z,22.36
2018-07-24T08:43:16.769Z,22.36
2018-07-24T08:44:16.405Z,22.36
2018-07-24T08:45:16.687Z,22.36
2018-07-24T08:46:16.486Z,22.39
2018-07-24T08:47:16.626Z,22.36
2018-07-24T08:48:16.582Z,22.36
2018-07-24T08:49:17.393Z,22.36
2018-07-24T08:50:16.329Z,22.38
2018-07-24T08:51:16.347Z,22.36
2018-07-24T08:52:16.895Z,22.36
2018-07-24T08:53:20.037Z,22.33
2018-07-24T08:54:18.888Z,22.36
2018-07-24T08:55:20.289Z,22.38
2018-07-24T08:56:16.456Z,22.36
2018-07-24T08:57:16.364Z,22.36
2018-07-24T08:58:16.760Z,22.36
2018-07-24T08:59:16.408Z,22.38
2018-07-24T09:00:16.532Z,22.36
2018-07-24T09:01:16.577Z,22.35
2018-07-24T09:02:16.322Z,22.35
2018-07-24T09:03:17.449Z,22.36
2018-07-24T09:04:17.474Z,22.36
2018-07-24T09:05:16.628Z,22.36
2018-07-24T09:06:16.513Z,22.36
2018-07-24T09:07:16.479Z,22.35
2018-07-24T09:08:16.578Z,22.33
2018-07-24T09:09:16.503Z,22.36
2018-07-24T09:10:17.575Z,22.36
2018-07-24T09:11:16.347Z,22.36
2018-07-24T09:12:16.464Z,22.35
2018-07-24T09:13:16.583Z,22.36
2018-07-24T09:14:16.455Z,22.35
2018-07-24T09:15:16.602Z,22.36
2018-07-24T09:16:16.948Z,22.33
2018-07-24T09:17:16.368Z,22.35
2018-07-24T09:18:16.555Z,22.36
2018-07-24T09:19:16.388Z,22.36
2018-07-24T09:20:16.370Z,22.35
2018-07-24T09:21:16.430Z,22.33
2018-07-24T09:22:16.650Z,22.36
2018-07-24T09:23:16.418Z,22.36
2018-07-24T09:24:16.619Z,22.38
2018-07-24T09:25:16.394Z,22.36
2018-07-24T09:26:16.476Z,22.36
2018-07-24T09:27:16.538Z,22.36
2018-07-24T09:28:16.528Z,22.36
2018-07-24T09:29:16.479Z,22.33
2018-07-24T09:30:17.508Z,22.35
2018-07-24T09:31:16.543Z,22.36
2018-07-24T09:32:16.756Z,22.32
2018-07-24T09:33:16.615Z,22.35
2018-07-24T09:34:16.651Z,22.35
2018-07-24T09:35:16.366Z,22.36
2018-07-24T09:36:16.636Z,22.36
2018-07-24T09:37:16.514Z,22.36
2018-07-24T09:38:16.489Z,22.35
2018-07-24T09:39:16.661Z,22.36
2018-07-24T09:40:16.671Z,22.38
2018-07-24T09:41:16.640Z,22.36
2018-07-24T09:42:16.449Z,22.35
2018-07-24T09:43:16.677Z,22.35
2018-07-24T09:44:16.681Z,22.35
2018-07-24T09:45:16.754Z,22.35
2018-07-24T09:46:16.391Z,22.35
2018-07-24T09:47:16.393Z,22.33
2018-07-24T09:48:16.646Z,22.35
2018-07-24T09:49:16.574Z,22.33
2018-07-24T09:50:16.495Z,22.35
2018-07-24T09:51:16.573Z,22.35
2018-07-24T09:52:16.426Z,22.35
2018-07-24T09:53:16.337Z,22.36
2018-07-24T09:54:16.801Z,22.35
2018-07-24T09:55:16.783Z,22.35
2018-07-24T09:56:16.418Z,22.35
2018-07-24T09:57:16.460Z,22.33
2018-07-24T09:58:16.396Z,22.33
2018-07-24T09:59:17.414Z,22.33
2018-07-24T10:00:16.386Z,22.36
2018-07-24T10:01:16.450Z,22.35
2018-07-24T10:02:16.659Z,22.33
2018-07-24T10:03:16.578Z,22.36
2018-07-24T10:04:16.618Z,22.36
2018-07-24T10:05:16.979Z,22.35
2018-07-24T10:06:16.600Z,22.35
2018-07-24T10:07:16.480Z,22.35
2018-07-24T10:08:16.515Z,22.36
2018-07-24T10:09:16.589Z,22.35
2018-07-24T10:10:16.479Z,22.33
2018-07-24T10:11:16.385Z,22.35
2018-07-24T10:12:17.583Z,22.35
2018-07-24T10:13:18.496Z,22.33
2018-07-24T10:14:16.299Z,22.33
2018-07-24T10:15:16.762Z,22.35
2018-07-24T10:16:16.393Z,22.33
2018-07-24T10:17:16.418Z,22.33
2018-07-24T10:18:16.384Z,22.33
2018-07-24T10:19:16.665Z,22.33
2018-07-24T10:20:16.729Z,22.38
2018-07-24T10:21:16.683Z,22.36
2018-07-24T10:22:17.078Z,22.33
2018-07-24T10:23:16.317Z,22.36
2018-07-24T10:24:16.617Z,22.36
2018-07-24T10:25:16.632Z,22.35
2018-07-24T10:26:16.452Z,22.35
2018-07-24T10:27:16.541Z,22.35
2018-07-24T10:28:16.582Z,22.33
2018-07-24T10:29:16.354Z,22.33
2018-07-24T10:30:17.067Z,22.36
2018-07-24T10:31:16.622Z,22.35
2018-07-24T10:32:16.341Z,22.35
2018-07-24T10:33:16.412Z,22.33
2018-07-24T10:34:16.532Z,22.35
2018-07-24T10:35:16.534Z,22.33
2018-07-24T10:36:16.433Z,22.36
2018-07-24T10:37:16.475Z,22.35
2018-07-24T10:38:16.485Z,22.35
2018-07-24T10:39:16.202Z,22.36
2018-07-24T10:40:16.291Z,22.36
2018-07-24T10:41:16.363Z,22.35
2018-07-24T10:42:16.441Z,22.35
2018-07-24T10:43:16.311Z,22.36
2018-07-24T10:44:16.402Z,22.33
2018-07-24T10:45:16.652Z,22.35
2018-07-24T10:46:16.330Z,22.35
2018-07-24T10:47:16.369Z,22.35
2018-07-24T10:48:16.543Z,22.33
2018-07-24T10:49:17.616Z,22.35
2018-07-24T10:50:16.445Z,22.33
2018-07-24T10:51:16.489Z,22.33
2018-07-24T10:52:16.631Z,22.35
2018-07-24T10:53:16.404Z,22.33
2018-07-24T10:54:16.585Z,22.33
2018-07-24T10:55:16.643Z,22.36
2018-07-24T10:56:16.639Z,22.35
2018-07-24T10:57:16.253Z,22.33
2018-07-24T10:58:16.673Z,22.35
2018-07-24T10:59:16.239Z,22.35
2018-07-24T11:00:16.661Z,22.36
2018-07-24T11:01:16.408Z,22.36
2018-07-24T11:02:16.702Z,22.35
2018-07-24T11:03:16.479Z,22.36
2018-07-24T11:04:16.561Z,22.33
2018-07-24T11:05:17.465Z,22.33
2018-07-24T11:06:16.505Z,22.36
2018-07-24T11:07:16.519Z,22.35
2018-07-24T11:08:16.274Z,22.35
2018-07-24T11:09:16.439Z,22.38
2018-07-24T11:10:16.481Z,22.36
2018-07-24T11:11:16.747Z,22.35
2018-07-24T11:12:16.375Z,22.36
2018-07-24T11:13:16.386Z,22.36
2018-07-24T11:14:16.412Z,22.38
2018-07-24T11:15:16.384Z,22.36
2018-07-24T11:16:16.480Z,22.38
2018-07-24T11:17:16.295Z,22.36
2018-07-24T11:18:17.436Z,22.35
2018-07-24T11:19:16.389Z,22.35
2018-07-24T11:20:16.589Z,22.35
2018-07-24T11:21:16.671Z,22.35
2018-07-24T11:22:17.912Z,22.35
2018-07-24T11:23:17.961Z,22.33
2018-07-24T11:24:16.321Z,22.36
2018-07-24T11:25:16.537Z,22.35
2018-07-24T11:26:16.334Z,22.35
2018-07-24T11:27:16.713Z,22.35
2018-07-24T11:28:16.905Z,22.36
2018-07-24T11:29:16.396Z,22.38
2018-07-24T11:30:16.435Z,22.36
2018-07-24T11:31:16.503Z,22.35
2018-07-24T11:32:16.592Z,22.35
2018-07-24T11:33:17.182Z,22.35
2018-07-24T11:34:16.553Z,22.35
2018-07-24T11:35:16.506Z,22.36
2018-07-24T11:36:17.467Z,22.38
2018-07-24T11:37:16.768Z,22.33
2018-07-24T11:38:16.666Z,22.33
2018-07-24T11:39:16.578Z,22.35
2018-07-24T11:40:16.310Z,22.32
2018-07-24T11:41:16.248Z,22.35
2018-07-24T11:42:16.462Z,22.36
2018-07-24T11:43:16.425Z,22.36
2018-07-24T11:44:17.368Z,22.35
2018-07-24T11:45:16.678Z,22.35
2018-07-24T11:46:16.363Z,22.33
2018-07-24T11:47:16.500Z,22.35
2018-07-24T11:48:16.455Z,22.35
2018-07-24T11:49:16.839Z,22.35
2018-07-24T11:50:16.635Z,22.33
2018-07-24T11:51:16.642Z,22.36
2018-07-24T11:52:16.553Z,22.36
2018-07-24T11:53:16.275Z,22.35
2018-07-24T11:54:16.379Z,22.36
2018-07-24T11:55:16.794Z,22.35
2018-07-24T11:56:16.459Z,22.33
2018-07-24T11:57:16.397Z,22.36
2018-07-24T11:58:16.715Z,22.38
2018-07-24T11:59:16.382Z,22.36
2018-07-24T12:00:16.323Z,22.36
2018-07-24T12:01:16.392Z,22.38
2018-07-24T12:02:16.271Z,22.35
2018-07-24T12:03:16.754Z,22.35
2018-07-24T12:04:16.755Z,22.36
2018-07-24T12:05:16.585Z,22.36
2018-07-24T12:06:16.681Z,22.35
2018-07-24T12:07:16.371Z,22.36
2018-07-24T12:08:16.350Z,22.35
2018-07-24T12:09:16.346Z,22.36
2018-07-24T12:10:16.398Z,22.36
2018-07-24T12:11:16.280Z,22.32
2018-07-24T12:12:16.685Z,22.36
2018-07-24T12:13:16.395Z,22.33
2018-07-24T12:14:16.827Z,22.36
2018-07-24T12:15:17.201Z,22.36
2018-07-24T12:16:16.589Z,22.38
2018-07-24T12:17:16.390Z,22.36
2018-07-24T12:18:16.505Z,22.36
2018-07-24T12:19:16.461Z,22.35
2018-07-24T12:20:16.287Z,22.35
2018-07-24T12:21:16.555Z,22.35
2018-07-24T12:22:16.755Z,22.35
2018-07-24T12:23:16.416Z,22.35
2018-07-24T12:24:16.413Z,22.38
2018-07-24T12:25:16.514Z,22.33
2018-07-24T12:26:16.488Z,22.36
2018-07-24T12:27:17.707Z,22.35
2018-07-24T12:28:16.435Z,22.36
2018-07-24T12:29:16.267Z,22.33
2018-07-24T12:30:16.398Z,22.35
2018-07-24T12:31:16.351Z,22.35
2018-07-24T12:32:16.625Z,22.33
2018-07-24T12:33:16.467Z,22.35
2018-07-24T12:34:16.321Z,22.35
2018-07-24T12:35:16.481Z,22.33
2018-07-24T12:36:17.461Z,22.32
2018-07-24T12:37:16.322Z,22.35
2018-07-24T12:38:16.244Z,22.35
2018-07-24T12:39:16.406Z,22.35
2018-07-24T12:40:16.510Z,22.35
2018-07-24T12:41:16.365Z,22.33
2018-07-24T12:42:16.487Z,22.33
2018-07-24T12:43:16.379Z,22.36
2018-07-24T12:44:16.705Z,22.35
2018-07-24T12:45:16.357Z,22.35
2018-07-24T12:46:16.397Z,22.33
2018-07-24T12:47:16.240Z,22.35
2018-07-24T12:48:16.377Z,22.35
2018-07-24T12:49:16.497Z,22.33
2018-07-24T12:50:16.808Z,22.35
2018-07-24T12:51:16.572Z,22.33
2018-07-24T12:52:16.432Z,22.36
2018-07-24T12:53:16.541Z,22.33
2018-07-24T12:54:16.518Z,22.36
2018-07-24T12:55:16.278Z,22.35